createdAt,value
2022-11-06T00:01:12.446Z,7.97
2022-11-06T00:03:39.816Z,8.05
2022-11-06T00:06:15.063Z,7.79
2022-11-06T00:08:41.678Z,7.88
2022-11-06T00:11:13.279Z,7.79
2022-11-06T00:13:41.107Z,7.85
2022-11-06T00:16:10.650Z,7.96
2022-11-06T00:18:39.024Z,8.05
2022-11-06T00:21:17.767Z,8.08
2022-11-06T00:23:45.325Z,8.01
2022-11-06T00:26:14.972Z,8.11
2022-11-06T00:28:42.354Z,8.07
2022-11-06T00:31:18.289Z,7.95
2022-11-06T00:33:45.823Z,7.87
2022-11-06T00:36:19.845Z,7.85
2022-11-06T00:38:46.558Z,7.90
2022-11-06T00:41:15.607Z,7.86
2022-11-06T00:43:43.220Z,7.89
2022-11-06T00:46:12.857Z,7.78
2022-11-06T00:48:40.989Z,7.83
2022-11-06T00:51:19.781Z,7.89
2022-11-06T00:53:47.058Z,7.85
2022-11-06T00:56:16.618Z,7.86
2022-11-06T00:58:44.792Z,7.72
2022-11-06T01:01:26.215Z,7.62
2022-11-06T01:04:01.490Z,7.72
2022-11-06T01:06:34.224Z,7.89
2022-11-06T01:09:03.688Z,7.85
2022-11-06T01:11:59.245Z,7.78
2022-11-06T01:14:23.773Z,7.84
2022-11-06T01:16:51.037Z,7.82
2022-11-06T01:19:19.935Z,8.15
2022-11-06T01:21:48.407Z,8.14
2022-11-06T01:24:24.698Z,8.15
2022-11-06T01:27:24.874Z,7.97
2022-11-06T01:29:38.585Z,8.02
2022-11-06T01:32:06.299Z,7.97
2022-11-06T01:34:33.182Z,7.92
2022-11-06T01:36:59.787Z,7.83
2022-11-06T01:39:26.503Z,7.87
2022-11-06T01:41:54.226Z,7.77
2022-11-06T01:44:36.062Z,7.85
2022-11-06T01:47:05.610Z,7.92
2022-11-06T01:49:37.560Z,8.01
2022-11-06T01:52:10.074Z,7.91
2022-11-06T01:54:39.316Z,8.04
2022-11-06T01:57:07.243Z,8.04
2022-11-06T01:59:39.494Z,8.03
2022-11-06T02:02:06.249Z,8.17
2022-11-06T02:04:37.789Z,8.07
2022-11-06T02:07:05.569Z,7.84
2022-11-06T02:09:34.445Z,7.97
2022-11-06T02:12:13.377Z,8.09
2022-11-06T02:15:01.870Z,7.96
2022-11-06T02:17:39.616Z,7.86
2022-11-06T02:20:28.068Z,7.99
2022-11-06T02:23:12.637Z,7.95
2022-11-06T02:26:14.488Z,7.82
2022-11-06T02:29:04.568Z,7.77
2022-11-06T02:31:35.585Z,7.83
2022-11-06T02:34:08.455Z,8.00
2022-11-06T02:37:08.205Z,7.96
2022-11-06T02:39:38.820Z,7.87
2022-11-06T02:42:08.445Z,7.72
2022-11-06T02:44:36.989Z,7.73
2022-11-06T02:47:09.475Z,7.82
2022-11-06T02:49:43.129Z,7.75
2022-11-06T02:52:18.610Z,7.85
2022-11-06T02:54:51.500Z,7.95
2022-11-06T02:57:21.029Z,7.77
2022-11-06T03:00:01.965Z,7.97
2022-11-06T03:02:34.353Z,7.99
2022-11-06T03:05:22.157Z,8.05
2022-11-06T03:08:09.094Z,8.11
2022-11-06T03:10:58.834Z,8.02
2022-11-06T03:13:53.203Z,8.31
2022-11-06T03:16:35.991Z,8.04
2022-11-06T03:19:12.489Z,8.13
2022-11-06T03:21:58.462Z,7.94
2022-11-06T03:25:00.123Z,7.85
2022-11-06T03:27:37.206Z,7.86
2022-11-06T03:30:16.537Z,7.81
2022-11-06T03:32:58.655Z,7.85
2022-11-06T03:35:32.424Z,7.99
2022-11-06T03:38:10.355Z,7.85
2022-11-06T03:40:47.420Z,7.76
2022-11-06T03:43:18.075Z,7.78
2022-11-06T03:45:47.475Z,7.84
2022-11-06T03:48:19.783Z,7.80
2022-11-06T03:51:05.541Z,7.70
2022-11-06T03:53:40.749Z,7.65
2022-11-06T03:56:16.530Z,7.68
2022-11-06T03:58:46.692Z,8.02
2022-11-06T04:01:18.349Z,7.90
2022-11-06T04:04:06.552Z,8.02
2022-11-06T04:06:44.622Z,7.91
2022-11-06T04:09:14.561Z,8.14
2022-11-06T04:11:42.602Z,8.38
2022-11-06T04:14:10.389Z,8.31
2022-11-06T04:16:45.309Z,7.99
2022-11-06T04:19:17.741Z,7.87
2022-11-06T04:21:53.557Z,7.81
2022-11-06T04:24:38.545Z,7.76
2022-11-06T04:27:29.732Z,7.80
2022-11-06T04:30:02.368Z,7.80
2022-11-06T04:32:40.766Z,7.67
2022-11-06T04:35:15.500Z,7.68
2022-11-06T04:37:47.833Z,7.79
2022-11-06T04:40:41.604Z,7.82
2022-11-06T04:43:18.504Z,7.86
2022-11-06T04:45:51.460Z,7.75
2022-11-06T04:48:19.744Z,7.84
2022-11-06T04:50:51.398Z,7.92
2022-11-06T04:53:20.539Z,7.83
2022-11-06T04:55:52.669Z,7.75
2022-11-06T04:58:19.233Z,7.93
2022-11-06T05:00:48.612Z,7.94
2022-11-06T05:03:16.496Z,8.04
2022-11-06T05:05:43.582Z,8.08
2022-11-06T05:08:17.549Z,7.82
2022-11-06T05:10:45.732Z,7.89
2022-11-06T05:13:14.042Z,7.92
2022-11-06T05:15:41.471Z,7.73
2022-11-06T05:18:08.106Z,7.83
2022-11-06T05:20:34.692Z,7.96
2022-11-06T05:23:01.357Z,8.04
2022-11-06T05:25:31.097Z,8.11
2022-11-06T05:27:58.126Z,8.14
2022-11-06T05:30:25.776Z,8.16
2022-11-06T05:32:52.995Z,8.14
2022-11-06T05:35:20.860Z,8.13
2022-11-06T05:37:47.803Z,7.96
2022-11-06T05:40:14.616Z,7.92
2022-11-06T05:42:41.822Z,7.72
2022-11-06T05:45:09.017Z,7.82
2022-11-06T05:47:35.648Z,7.74
2022-11-06T05:50:02.226Z,7.66
2022-11-06T05:52:28.797Z,7.84
2022-11-06T05:54:55.351Z,7.83
2022-11-06T05:57:22.088Z,7.87
2022-11-06T05:59:48.761Z,7.90
2022-11-06T06:02:15.423Z,7.81
2022-11-06T06:04:42.153Z,7.79
2022-11-06T06:07:09.338Z,7.89
2022-11-06T06:09:35.919Z,7.77
2022-11-06T06:12:02.525Z,7.85
2022-11-06T06:14:29.102Z,7.86
2022-11-06T06:16:55.661Z,8.05
2022-11-06T06:19:23.381Z,8.11
2022-11-06T06:21:49.976Z,8.15
2022-11-06T06:24:16.635Z,7.98
2022-11-06T06:26:43.253Z,7.96
2022-11-06T06:29:09.802Z,8.00
2022-11-06T06:31:36.454Z,7.91
2022-11-06T06:34:03.100Z,7.99
2022-11-06T06:36:29.666Z,7.96
2022-11-06T06:38:56.262Z,8.13
2022-11-06T06:41:22.911Z,8.43
2022-11-06T06:43:50.374Z,8.13
2022-11-06T06:46:17.472Z,8.24
2022-11-06T06:48:44.166Z,8.39
2022-11-06T06:51:10.761Z,8.34
2022-11-06T06:53:37.390Z,8.24
2022-11-06T06:56:04.098Z,8.34
2022-11-06T06:58:31.666Z,8.29
2022-11-06T07:01:03.398Z,8.20
2022-11-06T07:03:30.787Z,8.05
2022-11-06T07:06:00.533Z,8.06
2022-11-06T07:08:27.517Z,7.99
2022-11-06T07:11:00.507Z,8.11
2022-11-06T07:13:29.316Z,8.34
2022-11-06T07:15:59.564Z,7.94
2022-11-06T07:18:26.137Z,7.96
2022-11-06T07:20:52.758Z,7.96
2022-11-06T07:23:19.346Z,8.05
2022-11-06T07:25:52.271Z,7.96
2022-11-06T07:28:19.272Z,7.98
2022-11-06T07:30:46.762Z,8.11
2022-11-06T07:33:13.372Z,8.26
2022-11-06T07:35:39.929Z,8.33
2022-11-06T07:38:07.377Z,8.48
2022-11-06T07:40:34.483Z,8.21
2022-11-06T07:43:11.470Z,8.21
2022-11-06T07:45:39.062Z,8.17
2022-11-06T07:48:06.213Z,7.98
2022-11-06T07:50:32.938Z,8.16
2022-11-06T07:53:02.252Z,8.21
2022-11-06T07:55:28.979Z,8.27
2022-11-06T07:57:55.533Z,8.17
2022-11-06T08:00:22.170Z,8.27
2022-11-06T08:02:52.993Z,8.33
2022-11-06T08:05:19.801Z,8.45
2022-11-06T08:07:46.530Z,8.28
2022-11-06T08:10:13.113Z,8.37
2022-11-06T08:19:42.337Z,7.88
2022-11-06T08:22:08.896Z,8.07
2022-11-06T08:24:35.609Z,8.01
2022-11-06T08:27:02.269Z,7.96
2022-11-06T08:29:29.058Z,8.07
2022-11-06T08:31:55.644Z,8.11
2022-11-06T08:34:22.269Z,8.13
2022-11-06T08:36:49.815Z,8.19
2022-11-06T08:39:16.598Z,8.19
2022-11-06T08:41:43.215Z,8.29
2022-11-06T08:44:09.767Z,8.28
2022-11-06T08:46:36.459Z,8.62
2022-11-06T08:49:03.268Z,8.58
2022-11-06T08:51:29.837Z,8.51
2022-11-06T08:53:56.529Z,8.27
2022-11-06T08:56:23.119Z,8.51
2022-11-06T08:58:55.210Z,8.54
2022-11-06T09:01:22.911Z,8.55
2022-11-06T09:03:49.613Z,8.47
2022-11-06T09:06:16.275Z,8.47
2022-11-06T09:08:42.891Z,8.55
2022-11-06T09:11:09.495Z,8.58
2022-11-06T09:13:36.307Z,8.53
2022-11-06T09:16:02.904Z,8.55
2022-11-06T09:18:29.487Z,8.83
2022-11-06T09:20:57.523Z,8.61
2022-11-06T09:23:24.882Z,8.52
2022-11-06T09:25:51.481Z,8.61
2022-11-06T09:28:18.072Z,8.63
2022-11-06T09:30:44.656Z,8.63
2022-11-06T09:33:13.744Z,8.88
2022-11-06T09:35:40.761Z,8.85
2022-11-06T09:38:11.599Z,8.89
2022-11-06T09:40:42.685Z,8.81
2022-11-06T09:46:26.965Z,8.70
2022-11-06T09:49:05.899Z,8.94
2022-11-06T09:51:44.258Z,8.88
2022-11-06T09:54:21.440Z,8.92
2022-11-06T09:56:55.356Z,9.11
2022-11-06T09:59:22.165Z,9.06
2022-11-06T10:01:54.564Z,9.05
2022-11-06T10:04:27.330Z,9.18
2022-11-06T10:06:53.891Z,9.16
2022-11-06T10:09:20.680Z,9.20
2022-11-06T10:12:03.594Z,9.00
2022-11-06T10:14:56.376Z,9.25
2022-11-06T10:17:48.105Z,9.52
2022-11-06T10:20:26.523Z,9.55
2022-11-06T10:23:02.872Z,9.42
2022-11-06T10:25:41.716Z,9.54
2022-11-06T10:28:38.604Z,9.50
2022-11-06T10:31:05.217Z,9.50
2022-11-06T10:33:49.216Z,9.35
2022-11-06T10:36:22.703Z,9.31
2022-11-06T10:38:50.797Z,9.32
2022-11-06T10:41:25.541Z,9.37
2022-11-06T10:44:02.444Z,9.37
2022-11-06T10:46:58.472Z,9.60
2022-11-06T10:49:56.041Z,9.48
2022-11-06T10:52:37.764Z,9.60
2022-11-06T10:55:29.147Z,9.54
2022-11-06T10:58:01.366Z,9.43
2022-11-06T11:00:28.058Z,9.65
2022-11-06T11:03:13.333Z,9.73
2022-11-06T11:05:43.359Z,9.36
2022-11-06T11:08:31.530Z,9.45
2022-11-06T11:11:26.175Z,9.61
2022-11-06T11:13:55.883Z,9.59
2022-11-06T11:16:25.083Z,9.84
2022-11-06T11:18:52.643Z,9.79
2022-11-06T11:21:19.151Z,9.48
2022-11-06T11:24:07.362Z,9.63
2022-11-06T11:26:43.404Z,9.50
2022-11-06T11:29:24.165Z,9.50
2022-11-06T11:31:57.346Z,9.72
2022-11-06T11:34:28.427Z,9.59
2022-11-06T11:37:03.930Z,9.83
2022-11-06T11:39:42.384Z,10.10
2022-11-06T11:42:31.091Z,9.98
2022-11-06T11:45:09.740Z,10.44
2022-11-06T11:47:42.029Z,10.12
2022-11-06T11:50:29.568Z,10.22
2022-11-06T11:53:14.134Z,10.29
2022-11-06T11:55:46.277Z,9.93
2022-11-06T11:58:27.102Z,9.91
2022-11-06T12:00:53.638Z,9.80
2022-11-06T12:03:22.694Z,9.71
2022-11-06T12:05:49.500Z,9.89
2022-11-06T12:08:25.059Z,9.92
2022-11-06T12:10:51.877Z,10.11
2022-11-06T12:13:23.377Z,10.01
2022-11-06T12:15:59.914Z,9.91
2022-11-06T12:18:54.668Z,9.92
2022-11-06T12:21:33.404Z,9.76
2022-11-06T12:24:05.370Z,9.82
2022-11-06T12:26:36.958Z,10.04
2022-11-06T12:29:13.099Z,10.06
2022-11-06T12:31:52.218Z,10.32
2022-11-06T12:34:42.404Z,10.23
2022-11-06T12:37:39.220Z,10.64
2022-11-06T12:40:25.423Z,10.60
2022-11-06T12:43:11.032Z,10.31
2022-11-06T12:46:08.714Z,10.35
2022-11-06T12:49:01.013Z,10.50
2022-11-06T12:51:48.643Z,10.58
2022-11-06T12:54:42.427Z,10.60
2022-11-06T12:57:27.016Z,10.55
2022-11-06T12:59:59.503Z,10.41
2022-11-06T13:02:35.630Z,10.24
2022-11-06T13:05:23.398Z,10.31
2022-11-06T13:07:58.986Z,10.47
2022-11-06T13:10:40.868Z,10.46
2022-11-06T13:13:43.269Z,10.59
2022-11-06T13:16:12.879Z,10.60
2022-11-06T13:18:52.895Z,10.85
2022-11-06T13:21:52.038Z,10.53
2022-11-06T13:24:37.474Z,10.28
2022-11-06T13:27:26.190Z,10.44
2022-11-06T13:29:59.457Z,10.39
2022-11-06T13:32:30.013Z,10.53
2022-11-06T13:34:57.137Z,10.51
2022-11-06T13:37:38.188Z,10.50
2022-11-06T13:40:25.468Z,10.30
2022-11-06T13:43:06.817Z,10.11
2022-11-06T13:46:02.072Z,10.08
2022-11-06T13:48:53.173Z,10.21
2022-11-06T13:51:43.835Z,10.21
2022-11-06T13:54:29.137Z,10.22
2022-11-06T13:57:04.612Z,10.24
2022-11-06T14:00:01.585Z,10.34
2022-11-06T14:02:34.363Z,10.38
2022-11-06T14:05:01.067Z,10.55
2022-11-06T14:07:30.793Z,10.37
2022-11-06T14:09:58.181Z,10.32
2022-11-06T14:12:24.960Z,10.47
2022-11-06T14:15:20.583Z,10.56
2022-11-06T14:18:01.437Z,10.59
2022-11-06T14:20:36.850Z,10.44
2022-11-06T14:23:31.053Z,10.74
2022-11-06T14:26:03.944Z,10.88
2022-11-06T14:28:50.714Z,10.77
2022-11-06T14:31:55.945Z,10.45
2022-11-06T14:34:33.820Z,10.64
2022-11-06T14:37:30.847Z,10.72
2022-11-06T14:39:57.762Z,10.67
2022-11-06T14:42:27.020Z,10.71
2022-11-06T14:45:08.752Z,10.37
2022-11-06T14:47:36.004Z,10.60
2022-11-06T14:50:25.634Z,10.49
2022-11-06T14:53:02.302Z,10.30
2022-11-06T14:55:43.169Z,10.36
2022-11-06T14:58:23.468Z,9.95
2022-11-06T15:00:54.840Z,10.16
2022-11-06T15:03:44.640Z,10.38
2022-11-06T15:06:17.027Z,10.05
2022-11-06T15:08:46.284Z,9.97
2022-11-06T15:11:31.099Z,10.23
2022-11-06T15:14:03.490Z,10.39
2022-11-06T15:17:04.482Z,10.19
2022-11-06T15:19:39.818Z,10.07
2022-11-06T15:22:22.175Z,10.12
2022-11-06T15:25:00.012Z,10.19
2022-11-06T15:27:43.057Z,10.23
2022-11-06T15:30:16.713Z,10.25
2022-11-06T15:32:45.764Z,10.30
2022-11-06T15:35:24.820Z,10.47
2022-11-06T15:38:11.017Z,10.30
2022-11-06T15:40:39.542Z,10.21
2022-11-06T15:43:12.693Z,10.14
2022-11-06T15:45:39.569Z,10.15
2022-11-06T15:48:19.960Z,10.15
2022-11-06T15:50:46.568Z,10.17
2022-11-06T15:53:34.761Z,10.28
2022-11-06T15:56:08.431Z,10.25
2022-11-06T15:58:37.548Z,10.14
2022-11-06T16:01:07.127Z,10.04
2022-11-06T16:03:45.023Z,10.01
2022-11-06T16:06:11.747Z,9.93
2022-11-06T16:08:38.909Z,9.87
2022-11-06T16:11:13.085Z,9.83
2022-11-06T16:13:41.685Z,9.80
2022-11-06T16:16:28.137Z,9.96
2022-11-06T16:18:54.936Z,10.06
2022-11-06T16:21:24.421Z,9.82
2022-11-06T16:23:55.190Z,9.74
2022-11-06T16:26:27.516Z,9.59
2022-11-06T16:28:56.255Z,9.49
2022-11-06T16:31:26.259Z,9.58
2022-11-06T16:34:00.084Z,9.50
2022-11-06T16:36:29.896Z,9.52
2022-11-06T16:39:17.886Z,9.85
2022-11-06T16:42:09.572Z,9.85
2022-11-06T16:44:36.107Z,9.89
2022-11-06T16:47:05.458Z,9.77
2022-11-06T16:49:34.870Z,9.71
2022-11-06T16:52:03.338Z,9.68
2022-11-06T16:54:29.956Z,9.69
2022-11-06T16:57:08.910Z,10.00
2022-11-06T16:59:35.879Z,10.23
2022-11-06T17:02:05.132Z,9.95
2022-11-06T17:04:31.853Z,9.59
2022-11-06T17:06:58.683Z,9.59
2022-11-06T17:09:31.165Z,9.48
2022-11-06T17:11:59.864Z,9.39
2022-11-06T17:14:26.741Z,9.40
2022-11-06T17:16:56.008Z,9.23
2022-11-06T17:19:22.592Z,8.71
2022-11-06T17:21:50.326Z,8.81
2022-11-06T17:27:05.769Z,9.07
2022-11-06T17:29:33.071Z,9.02
2022-11-06T17:31:59.644Z,9.00
2022-11-06T17:34:26.258Z,9.02
2022-11-06T17:36:52.904Z,9.06
2022-11-06T17:39:19.489Z,8.94
2022-11-06T17:41:46.114Z,9.19
2022-11-06T17:44:12.727Z,9.24
2022-11-06T17:46:42.447Z,9.09
2022-11-06T17:49:15.813Z,9.11
2022-11-06T17:51:46.195Z,9.41
2022-11-06T17:54:13.430Z,9.22
2022-11-06T17:56:40.154Z,9.28
2022-11-06T17:59:08.877Z,9.03
2022-11-06T18:01:35.770Z,9.17
2022-11-06T18:04:02.774Z,8.96
2022-11-06T18:06:29.373Z,8.92
2022-11-06T18:09:00.991Z,8.95
2022-11-06T18:11:28.232Z,8.95
2022-11-06T18:13:55.423Z,8.94
2022-11-06T18:16:25.226Z,8.95
2022-11-06T18:18:51.878Z,8.79
2022-11-06T18:21:18.479Z,8.82
2022-11-06T18:23:45.071Z,8.79
2022-11-06T18:26:12.257Z,8.69
2022-11-06T18:28:39.536Z,8.70
2022-11-06T18:31:06.595Z,8.80
2022-11-06T18:33:34.799Z,8.68
2022-11-06T18:36:02.485Z,8.58
2022-11-06T18:38:29.452Z,8.56
2022-11-06T18:40:56.445Z,8.56
2022-11-06T18:43:23.812Z,8.60
2022-11-06T18:45:51.001Z,8.61
2022-11-06T18:48:21.312Z,8.61
2022-11-06T18:50:48.616Z,8.71
2022-11-06T18:53:15.426Z,8.67
2022-11-06T18:55:45.672Z,8.53
2022-11-06T18:58:13.077Z,8.47
2022-11-06T19:00:40.144Z,8.41
2022-11-06T19:03:06.816Z,8.49
2022-11-06T19:05:33.443Z,8.47
2022-11-06T19:08:00.845Z,8.55
2022-11-06T19:10:27.570Z,8.48
2022-11-06T19:12:57.300Z,8.47
2022-11-06T19:15:26.027Z,8.52
2022-11-06T19:17:53.893Z,8.41
2022-11-06T19:20:21.055Z,8.45
2022-11-06T19:22:51.846Z,8.50
2022-11-06T19:25:19.505Z,8.51
2022-11-06T19:27:46.947Z,8.43
2022-11-06T19:30:15.006Z,8.45
2022-11-06T19:32:41.916Z,8.46
2022-11-06T19:35:09.004Z,8.46
2022-11-06T19:37:35.647Z,8.47
2022-11-06T19:40:05.922Z,8.56
2022-11-06T19:42:33.439Z,8.34
2022-11-06T19:45:00.092Z,8.42
2022-11-06T19:47:26.700Z,8.43
2022-11-06T19:49:53.568Z,8.40
2022-11-06T19:52:43.207Z,8.41
2022-11-06T19:55:26.674Z,8.43
2022-11-06T19:57:53.544Z,8.41
2022-11-06T20:00:20.226Z,8.37
2022-11-06T20:02:49.236Z,8.29
2022-11-06T20:05:16.295Z,8.20
2022-11-06T20:07:42.976Z,8.32
2022-11-06T20:10:09.729Z,8.21
2022-11-06T20:12:36.346Z,8.22
2022-11-06T20:15:03.191Z,8.32
2022-11-06T20:17:29.766Z,8.17
2022-11-06T20:19:56.377Z,8.14
2022-11-06T20:22:22.942Z,8.28
2022-11-06T20:24:49.574Z,8.11
2022-11-06T20:27:16.152Z,8.57
2022-11-06T20:29:42.756Z,8.49
2022-11-06T20:32:09.829Z,8.34
2022-11-06T20:34:36.490Z,7.92
2022-11-06T20:37:03.098Z,7.78
2022-11-06T20:39:29.750Z,8.13
2022-11-06T20:41:56.346Z,7.95
2022-11-06T20:44:23.015Z,8.14
2022-11-06T20:46:49.655Z,8.26
2022-11-06T20:49:16.355Z,8.17
2022-11-06T20:52:11.591Z,8.20
2022-11-06T20:54:29.659Z,8.03
2022-11-06T20:56:56.294Z,8.12
2022-11-06T20:59:22.877Z,8.13
2022-11-06T21:01:49.585Z,8.07
2022-11-06T21:04:16.455Z,8.09
2022-11-06T21:06:43.221Z,8.01
2022-11-06T21:09:09.832Z,7.95
2022-11-06T21:11:36.583Z,7.89
2022-11-06T21:14:03.316Z,8.07
2022-11-06T21:16:32.870Z,7.85
2022-11-06T21:19:00.906Z,7.66
2022-11-06T21:21:30.403Z,7.62
2022-11-06T21:23:56.999Z,7.58
2022-11-06T21:26:27.268Z,7.59
2022-11-06T21:28:54.075Z,7.67
2022-11-06T21:31:23.632Z,7.72
2022-11-06T21:33:51.790Z,7.63
2022-11-06T21:36:21.630Z,7.59
2022-11-06T21:38:48.545Z,7.60
2022-11-06T21:41:18.505Z,7.59
2022-11-06T21:43:45.117Z,7.58
2022-11-06T21:46:12.840Z,7.46
2022-11-06T21:48:46.490Z,7.44
2022-11-06T21:51:18.914Z,7.33
2022-11-06T21:53:46.414Z,7.24
2022-11-06T21:56:14.056Z,7.27
2022-11-06T21:58:40.770Z,7.14
2022-11-06T22:01:07.788Z,7.21
2022-11-06T22:03:34.993Z,7.18
2022-11-06T22:06:14.001Z,7.23
2022-11-06T22:08:43.427Z,7.23
2022-11-06T22:11:17.012Z,7.29
2022-11-06T22:13:44.683Z,7.29
2022-11-06T22:16:13.268Z,7.25
2022-11-06T22:18:40.526Z,7.31
2022-11-06T22:21:18.248Z,7.39
2022-11-06T22:23:45.306Z,7.37
2022-11-06T22:26:17.595Z,7.48
2022-11-06T22:28:44.710Z,7.40
2022-11-06T22:31:11.850Z,7.35
2022-11-06T22:33:39.054Z,7.28
2022-11-06T22:36:05.960Z,7.35
2022-11-06T22:38:33.108Z,7.27
2022-11-06T22:41:02.060Z,7.23
2022-11-06T22:43:30.080Z,7.19
2022-11-06T22:46:01.576Z,7.17
2022-11-06T22:48:29.882Z,7.16
2022-11-06T22:50:57.087Z,7.18
2022-11-06T22:53:23.658Z,7.08
2022-11-06T22:55:55.109Z,7.14
2022-11-06T22:58:21.873Z,7.18
2022-11-06T23:00:56.709Z,7.10
2022-11-06T23:03:24.798Z,7.12
2022-11-06T23:05:51.520Z,7.08
2022-11-06T23:08:18.572Z,7.06
2022-11-06T23:10:45.689Z,7.01
2022-11-06T23:13:12.607Z,6.99
2022-11-06T23:15:40.485Z,6.94
2022-11-06T23:18:07.149Z,6.93
2022-11-06T23:20:34.662Z,6.92
2022-11-06T23:23:02.488Z,6.90
2022-11-06T23:25:30.100Z,7.00
2022-11-06T23:27:58.225Z,6.80
2022-11-06T23:30:24.909Z,6.86
2022-11-06T23:32:51.719Z,6.79
2022-11-06T23:35:19.543Z,6.80
2022-11-06T23:37:48.895Z,6.81
2022-11-06T23:40:15.480Z,6.90
2022-11-06T23:42:42.112Z,6.87
2022-11-06T23:45:10.974Z,6.83
2022-11-06T23:47:37.939Z,6.77
2022-11-06T23:50:05.651Z,6.83
2022-11-06T23:52:32.594Z,6.84
2022-11-06T23:54:59.246Z,6.93
2022-11-06T23:57:25.829Z,6.99
2022-11-06T23:59:52.437Z,6.93
